Red Hook — WDE4476 — position and weather

sailwx.info

Track history (hours):
 
Tides and Currents Weather Stations Pressure Air Temp Water Temp Dewpoint Dewpoint Depression Visibility Wind Speed Wind Dir Waves Ship Positions

Red Hook

Owner: CITY OF NEW YORK, Brooklyn, NY. More information available from US FCC via Universal Licensing System and Coast Guard Vessel Documentation Center.

Last reported at 2018-Jul-19 23:33 UTC. Time now 2018-Jul-20 00:59 UTC.
Position N 40°47' W 073°55'.

Length 106 m; draft 5 m.

Type: Tanker. MMSI: 367353660.

Date/timePositionNaut miles runAvg speedWind from/ knotsBaromVisibWave heightAir tempDewpointWater temp
2018-Jul-19 23:33N 40°47' W 073°55'1 7.5
2018-Jul-19 23:21N 40°46' W 073°57'3 8.9
2018-Jul-19 23:00N 40°43' W 073°58'5 9.3
2018-Jul-19 22:30N 40°40' W 074°03'4 8.8
2018-Jul-19 22:00N 40°39' W 074°08'2 4.2
2018-Jul-19 21:30N 40°41' W 074°08'2 4.3
2018-Jul-19 21:00N 40°43' W 074°07'0 0.0
2018-Jul-19 20:30N 40°43' W 074°07'0 0.0
2018-Jul-19 20:00N 40°43' W 074°07'0 0.0
2018-Jul-19 19:30N 40°43' W 074°07'0 0.0
2018-Jul-19 19:00N 40°43' W 074°07'2 3.4
2018-Jul-19 18:30N 40°41' W 074°08'2 3.2
2018-Jul-19 18:00N 40°40' W 074°09'3 5.4
2018-Jul-19 17:30N 40°39' W 074°05'5 9.2
2018-Jul-19 17:00N 40°43' W 074°02'611.2
2018-Jul-19 16:30N 40°48' W 073°59'1 0.3
2018-Jul-19 13:39N 40°47' W 073°59'1 9.1
2018-Jul-19 13:30N 40°46' W 074°00'4 8.2
2018-Jul-19 13:01N 40°42' W 074°00'711.9
2018-Jul-19 12:27N 40°47' W 073°55'2 0.1
2018-Jul-18 21:15N 40°46' W 073°57'2 8.5
2018-Jul-18 21:00N 40°44' W 073°58'3 6.0
2018-Jul-18 20:30N 40°42' W 074°02'510.8
2018-Jul-18 20:00N 40°48' W 073°59'3 1.0
2018-Jul-18 17:32N 40°50' W 073°58'310.1
2018-Jul-18 17:13N 40°47' W 073°60'313.0
2018-Jul-18 17:00N 40°44' W 074°01'2 4.9
2018-Jul-18 16:30N 40°43' W 073°58'3 0.1
2018-Jul-17 17:49N 40°46' W 073°57'311.4
2018-Jul-17 17:30N 40°42' W 073°59'3 6.2
2018-Jul-17 17:00N 40°45' W 074°01'5 8.7
2018-Jul-17 16:29N 40°49' W 073°58'1 0.2
2018-Jul-17 14:10N 40°50' W 073°58'3 9.1
2018-Jul-17 13:52N 40°47' W 073°60'411.0
2018-Jul-17 13:30N 40°44' W 074°01'2 4.7
2018-Jul-17 13:00N 40°44' W 073°58'2 0.1
2018-Jul-16 17:25N 40°46' W 073°57'4 9.6
2018-Jul-16 17:00N 40°42' W 073°60'3 6.7
2018-Jul-16 16:30N 40°46' W 074°01'5 8.6
2018-Jul-16 15:58N 40°49' W 073°58'0 0.0
2018-Jul-16 14:37N 40°50' W 073°58'0 0.0
2018-Jul-16 13:47N 40°50' W 073°58'310.0
2018-Jul-16 13:30N 40°47' W 073°60'510.8
2018-Jul-16 13:01N 40°42' W 074°01'4 8.1
2018-Jul-16 12:30N 40°45' W 073°58'3 0.1
2018-Jul-14 22:41N 40°47' W 073°55'210.0
2018-Jul-14 22:29N 40°46' W 073°57'612.0
2018-Jul-14 22:00N 40°41' W 074°01'510.4
2018-Jul-14 21:30N 40°39' W 074°07'4 8.4
2018-Jul-14 21:00N 40°43' W 074°07'0 0.2
2018-Jul-14 20:30N 40°43' W 074°07'0 0.0
2018-Jul-14 20:00N 40°43' W 074°07'0 0.0
2018-Jul-14 19:30N 40°43' W 074°07'0 0.0
2018-Jul-14 19:00N 40°43' W 074°07'0 0.0
2018-Jul-14 18:30N 40°43' W 074°07'1 1.5
2018-Jul-14 18:00N 40°42' W 074°07'3 6.7
2018-Jul-14 17:30N 40°39' W 074°07'4 7.3
2018-Jul-14 17:00N 40°40' W 074°03'611.1
2018-Jul-14 16:30N 40°45' W 074°01'5 9.7
2018-Jul-14 16:00N 40°50' W 073°58'0 0.0
2018-Jul-14 15:13N 40°50' W 073°58'0 0.0
2018-Jul-14 14:58N 40°50' W 073°58'0 0.0
2018-Jul-14 14:29N 40°50' W 073°58'4 4.3
2018-Jul-14 13:30N 40°46' W 074°00'3 6.8
2018-Jul-14 13:00N 40°42' W 073°59'4 8.1
2018-Jul-14 12:30N 40°46' W 073°57'2 0.7
2018-Jul-14 09:41N 40°47' W 073°55'0 0.0
2018-Jul-14 09:30N 40°47' W 073°55'0 0.0
2018-Jul-14 09:00N 40°47' W 073°55'0 0.0
2018-Jul-14 08:30N 40°47' W 073°55'0 0.0
2018-Jul-14 08:00N 40°47' W 073°55'0 0.0
2018-Jul-14 07:30N 40°47' W 073°55'0 0.0
2018-Jul-14 07:00N 40°47' W 073°55'0 0.0
2018-Jul-14 06:30N 40°47' W 073°55'0 0.0
2018-Jul-14 05:21N 40°47' W 073°55'0 0.0
2018-Jul-14 04:53N 40°47' W 073°55'0 0.0
2018-Jul-13 16:51N 40°47' W 073°55'2 6.2
2018-Jul-13 16:30N 40°46' W 073°57'4 7.9
2018-Jul-13 16:00N 40°42' W 073°60'4 7.4
2018-Jul-13 15:30N 40°46' W 074°01'4 2.7
2018-Jul-13 13:51N 40°50' W 073°58'0 0.0
2018-Jul-13 13:14N 40°50' W 073°58'0 0.0
2018-Jul-13 12:58N 40°50' W 073°58'510.5
2018-Jul-13 12:30N 40°45' W 074°01'3 6.2
2018-Jul-13 12:00N 40°43' W 073°59'4 8.0
2018-Jul-13 11:30N 40°46' W 073°57'2 1.1
2018-Jul-13 09:51N 40°47' W 073°55'0 0.0
2018-Jul-13 09:30N 40°47' W 073°55'0 0.0
2018-Jul-13 09:01N 40°47' W 073°55'0 0.0
2018-Jul-13 08:31N 40°47' W 073°55'0 0.0
2018-Jul-13 07:59N 40°47' W 073°55'0 0.0
2018-Jul-13 07:30N 40°47' W 073°55'0 0.0
2018-Jul-13 07:00N 40°47' W 073°55'0 0.0
2018-Jul-13 06:30N 40°47' W 073°55'0 0.0
2018-Jul-13 06:00N 40°47' W 073°55'0 0.0
2018-Jul-13 05:30N 40°47' W 073°55'0 0.0
2018-Jul-13 05:00N 40°47' W 073°55'0 0.0
2018-Jul-13 04:30N 40°47' W 073°55'1 0.1
2018-Jul-12 23:19N 40°47' W 073°55'412.7
2018-Jul-12 23:00N 40°44' W 073°58'612.5
2018-Jul-12 22:30N 40°39' W 074°04'3 6.9
2018-Jul-12 22:00N 40°40' W 074°08'3 6.0
2018-Jul-12 21:30N 40°43' W 074°07'0 0.0
2018-Jul-12 21:00N 40°43' W 074°07'0 0.0
2018-Jul-12 20:30N 40°43' W 074°07'0 0.0
2018-Jul-12 20:00N 40°43' W 074°07'0 0.0
2018-Jul-12 19:30N 40°43' W 074°07'0 0.0
2018-Jul-12 19:00N 40°43' W 074°07'0 1.0
2018-Jul-12 18:31N 40°42' W 074°07'4 7.8
2018-Jul-12 18:00N 40°39' W 074°09'3 5.7
2018-Jul-12 17:30N 40°39' W 074°05'611.4
2018-Jul-12 16:59N 40°44' W 074°01'6 1.8
2018-Jul-12 13:45N 40°50' W 073°58'3 9.3
2018-Jul-12 13:28N 40°47' W 073°59'612.2
2018-Jul-12 13:00N 40°42' W 074°01'5 9.5
2018-Jul-12 12:29N 40°46' W 073°57'2 0.1
2018-Jul-11 20:45N 40°47' W 073°55'312.2
2018-Jul-11 20:30N 40°45' W 073°58'612.2
2018-Jul-11 20:00N 40°40' W 074°03'4 8.5
2018-Jul-11 19:30N 40°38' W 074°08'0 0.0
2018-Jul-11 19:00N 40°38' W 074°08'0 0.0
2018-Jul-11 18:30N 40°38' W 074°08'0 0.0
2018-Jul-11 18:00N 40°38' W 074°08'0 0.0
2018-Jul-11 17:30N 40°38' W 074°08'0 0.7
2018-Jul-11 17:00N 40°39' W 074°07'510.9
2018-Jul-11 16:30N 40°42' W 074°02'4 1.5
2018-Jul-11 13:30N 40°46' W 074°00'4 7.8
2018-Jul-11 13:00N 40°42' W 073°60'510.3
2018-Jul-11 12:29N 40°47' W 073°56'0 0.0
2018-Jul-10 21:45N 40°47' W 073°55'414.3
2018-Jul-10 21:30N 40°44' W 073°58'612.2
2018-Jul-10 21:01N 40°39' W 074°03'4 8.4
2018-Jul-10 20:30N 40°39' W 074°09'2 4.3
2018-Jul-10 20:01N 40°41' W 074°08'2 3.1
2018-Jul-10 19:31N 40°43' W 074°07'0 0.0
2018-Jul-10 19:00N 40°43' W 074°07'0 0.0
2018-Jul-10 18:30N 40°43' W 074°07'0 0.0
2018-Jul-10 18:01N 40°43' W 074°07'0 0.6
2018-Jul-10 17:31N 40°42' W 074°07'3 6.3
2018-Jul-10 17:00N 40°40' W 074°09'4 7.7
2018-Jul-10 16:30N 40°39' W 074°03'713.6
2018-Jul-10 16:01N 40°46' W 074°01'2 0.6
2018-Jul-10 13:16N 40°47' W 073°59'311.8
2018-Jul-10 13:01N 40°44' W 074°01'2 4.3
2018-Jul-10 12:30N 40°45' W 073°58'  
Track history (hours):
 
Tides and Currents Weather Stations Pressure Air Temp Water Temp Dewpoint Dewpoint Depression Visibility Wind Speed Wind Dir Waves Ship Positions

Red Hook

Owner: CITY OF NEW YORK, Brooklyn, NY. More information available from US FCC via Universal Licensing System and Coast Guard Vessel Documentation Center.

Last reported at 2018-Jul-19 23:33 UTC. Time now 2018-Jul-20 00:59 UTC.
Position N 40°47' W 073°55'.

Length 106 m; draft 5 m.

Type: Tanker. MMSI: 367353660.

Date/timePositionNaut miles runAvg speedWind from/ knotsBaromVisibWave heightAir tempDewpointWater temp
2018-Jul-19 23:33N 40°47' W 073°55'1 7.5
2018-Jul-19 23:21N 40°46' W 073°57'3 8.9
2018-Jul-19 23:00N 40°43' W 073°58'5 9.3
2018-Jul-19 22:30N 40°40' W 074°03'4 8.8
2018-Jul-19 22:00N 40°39' W 074°08'2 4.2
2018-Jul-19 21:30N 40°41' W 074°08'2 4.3
2018-Jul-19 21:00N 40°43' W 074°07'0 0.0
2018-Jul-19 20:30N 40°43' W 074°07'0 0.0
2018-Jul-19 20:00N 40°43' W 074°07'0 0.0
2018-Jul-19 19:30N 40°43' W 074°07'0 0.0
2018-Jul-19 19:00N 40°43' W 074°07'2 3.4
2018-Jul-19 18:30N 40°41' W 074°08'2 3.2
2018-Jul-19 18:00N 40°40' W 074°09'3 5.4
2018-Jul-19 17:30N 40°39' W 074°05'5 9.2
2018-Jul-19 17:00N 40°43' W 074°02'611.2
2018-Jul-19 16:30N 40°48' W 073°59'1 0.3
2018-Jul-19 13:39N 40°47' W 073°59'1 9.1
2018-Jul-19 13:30N 40°46' W 074°00'4 8.2
2018-Jul-19 13:01N 40°42' W 074°00'711.9
2018-Jul-19 12:27N 40°47' W 073°55'2 0.1
2018-Jul-18 21:15N 40°46' W 073°57'2 8.5
2018-Jul-18 21:00N 40°44' W 073°58'3 6.0
2018-Jul-18 20:30N 40°42' W 074°02'510.8
2018-Jul-18 20:00N 40°48' W 073°59'3 1.0
2018-Jul-18 17:32N 40°50' W 073°58'310.1
2018-Jul-18 17:13N 40°47' W 073°60'313.0
2018-Jul-18 17:00N 40°44' W 074°01'2 4.9
2018-Jul-18 16:30N 40°43' W 073°58'3 0.1
2018-Jul-17 17:49N 40°46' W 073°57'311.4
2018-Jul-17 17:30N 40°42' W 073°59'3 6.2
2018-Jul-17 17:00N 40°45' W 074°01'5 8.7
2018-Jul-17 16:29N 40°49' W 073°58'1 0.2
2018-Jul-17 14:10N 40°50' W 073°58'3 9.1
2018-Jul-17 13:52N 40°47' W 073°60'411.0
2018-Jul-17 13:30N 40°44' W 074°01'2 4.7
2018-Jul-17 13:00N 40°44' W 073°58'2 0.1
2018-Jul-16 17:25N 40°46' W 073°57'4 9.6
2018-Jul-16 17:00N 40°42' W 073°60'3 6.7
2018-Jul-16 16:30N 40°46' W 074°01'5 8.6
2018-Jul-16 15:58N 40°49' W 073°58'0 0.0
2018-Jul-16 14:37N 40°50' W 073°58'0 0.0
2018-Jul-16 13:47N 40°50' W 073°58'310.0
2018-Jul-16 13:30N 40°47' W 073°60'510.8
2018-Jul-16 13:01N 40°42' W 074°01'4 8.1
2018-Jul-16 12:30N 40°45' W 073°58'3 0.1
2018-Jul-14 22:41N 40°47' W 073°55'210.0
2018-Jul-14 22:29N 40°46' W 073°57'612.0
2018-Jul-14 22:00N 40°41' W 074°01'510.4
2018-Jul-14 21:30N 40°39' W 074°07'4 8.4
2018-Jul-14 21:00N 40°43' W 074°07'0 0.2
2018-Jul-14 20:30N 40°43' W 074°07'0 0.0
2018-Jul-14 20:00N 40°43' W 074°07'0 0.0
2018-Jul-14 19:30N 40°43' W 074°07'0 0.0
2018-Jul-14 19:00N 40°43' W 074°07'0 0.0
2018-Jul-14 18:30N 40°43' W 074°07'1 1.5
2018-Jul-14 18:00N 40°42' W 074°07'3 6.7
2018-Jul-14 17:30N 40°39' W 074°07'4 7.3
2018-Jul-14 17:00N 40°40' W 074°03'611.1
2018-Jul-14 16:30N 40°45' W 074°01'5 9.7
2018-Jul-14 16:00N 40°50' W 073°58'0 0.0
2018-Jul-14 15:13N 40°50' W 073°58'0 0.0
2018-Jul-14 14:58N 40°50' W 073°58'0 0.0
2018-Jul-14 14:29N 40°50' W 073°58'4 4.3
2018-Jul-14 13:30N 40°46' W 074°00'3 6.8
2018-Jul-14 13:00N 40°42' W 073°59'4 8.1
2018-Jul-14 12:30N 40°46' W 073°57'2 0.7
2018-Jul-14 09:41N 40°47' W 073°55'0 0.0
2018-Jul-14 09:30N 40°47' W 073°55'0 0.0
2018-Jul-14 09:00N 40°47' W 073°55'0 0.0
2018-Jul-14 08:30N 40°47' W 073°55'0 0.0
2018-Jul-14 08:00N 40°47' W 073°55'0 0.0
2018-Jul-14 07:30N 40°47' W 073°55'0 0.0
2018-Jul-14 07:00N 40°47' W 073°55'0 0.0
2018-Jul-14 06:30N 40°47' W 073°55'0 0.0
2018-Jul-14 05:21N 40°47' W 073°55'0 0.0
2018-Jul-14 04:53N 40°47' W 073°55'0 0.0
2018-Jul-13 16:51N 40°47' W 073°55'2 6.2
2018-Jul-13 16:30N 40°46' W 073°57'4 7.9
2018-Jul-13 16:00N 40°42' W 073°60'4 7.4
2018-Jul-13 15:30N 40°46' W 074°01'4 2.7
2018-Jul-13 13:51N 40°50' W 073°58'0 0.0
2018-Jul-13 13:14N 40°50' W 073°58'0 0.0
2018-Jul-13 12:58N 40°50' W 073°58'510.5
2018-Jul-13 12:30N 40°45' W 074°01'3 6.2
2018-Jul-13 12:00N 40°43' W 073°59'4 8.0
2018-Jul-13 11:30N 40°46' W 073°57'2 1.1
2018-Jul-13 09:51N 40°47' W 073°55'0 0.0
2018-Jul-13 09:30N 40°47' W 073°55'0 0.0
2018-Jul-13 09:01N 40°47' W 073°55'0 0.0
2018-Jul-13 08:31N 40°47' W 073°55'0 0.0
2018-Jul-13 07:59N 40°47' W 073°55'0 0.0
2018-Jul-13 07:30N 40°47' W 073°55'0 0.0
2018-Jul-13 07:00N 40°47' W 073°55'0 0.0
2018-Jul-13 06:30N 40°47' W 073°55'0 0.0
2018-Jul-13 06:00N 40°47' W 073°55'0 0.0
2018-Jul-13 05:30N 40°47' W 073°55'0 0.0
2018-Jul-13 05:00N 40°47' W 073°55'0 0.0
2018-Jul-13 04:30N 40°47' W 073°55'1 0.1
2018-Jul-12 23:19N 40°47' W 073°55'412.7
2018-Jul-12 23:00N 40°44' W 073°58'612.5
2018-Jul-12 22:30N 40°39' W 074°04'3 6.9
2018-Jul-12 22:00N 40°40' W 074°08'3 6.0
2018-Jul-12 21:30N 40°43' W 074°07'0 0.0
2018-Jul-12 21:00N 40°43' W 074°07'0 0.0
2018-Jul-12 20:30N 40°43' W 074°07'0 0.0
2018-Jul-12 20:00N 40°43' W 074°07'0 0.0
2018-Jul-12 19:30N 40°43' W 074°07'0 0.0
2018-Jul-12 19:00N 40°43' W 074°07'0 1.0
2018-Jul-12 18:31N 40°42' W 074°07'4 7.8
2018-Jul-12 18:00N 40°39' W 074°09'3 5.7
2018-Jul-12 17:30N 40°39' W 074°05'611.4
2018-Jul-12 16:59N 40°44' W 074°01'6 1.8
2018-Jul-12 13:45N 40°50' W 073°58'3 9.3
2018-Jul-12 13:28N 40°47' W 073°59'612.2
2018-Jul-12 13:00N 40°42' W 074°01'5 9.5
2018-Jul-12 12:29N 40°46' W 073°57'2 0.1
2018-Jul-11 20:45N 40°47' W 073°55'312.2
2018-Jul-11 20:30N 40°45' W 073°58'612.2
2018-Jul-11 20:00N 40°40' W 074°03'4 8.5
2018-Jul-11 19:30N 40°38' W 074°08'0 0.0
2018-Jul-11 19:00N 40°38' W 074°08'0 0.0
2018-Jul-11 18:30N 40°38' W 074°08'0 0.0
2018-Jul-11 18:00N 40°38' W 074°08'0 0.0
2018-Jul-11 17:30N 40°38' W 074°08'0 0.7
2018-Jul-11 17:00N 40°39' W 074°07'510.9
2018-Jul-11 16:30N 40°42' W 074°02'4 1.5
2018-Jul-11 13:30N 40°46' W 074°00'4 7.8
2018-Jul-11 13:00N 40°42' W 073°60'510.3
2018-Jul-11 12:29N 40°47' W 073°56'0 0.0
2018-Jul-10 21:45N 40°47' W 073°55'414.3
2018-Jul-10 21:30N 40°44' W 073°58'612.2
2018-Jul-10 21:01N 40°39' W 074°03'4 8.4
2018-Jul-10 20:30N 40°39' W 074°09'2 4.3
2018-Jul-10 20:01N 40°41' W 074°08'2 3.1
2018-Jul-10 19:31N 40°43' W 074°07'0 0.0
2018-Jul-10 19:00N 40°43' W 074°07'0 0.0
2018-Jul-10 18:30N 40°43' W 074°07'0 0.0
2018-Jul-10 18:01N 40°43' W 074°07'0 0.6
2018-Jul-10 17:31N 40°42' W 074°07'3 6.3
2018-Jul-10 17:00N 40°40' W 074°09'4 7.7
2018-Jul-10 16:30N 40°39' W 074°03'713.6
2018-Jul-10 16:01N 40°46' W 074°01'2 0.6
2018-Jul-10 13:16N 40°47' W 073°59'311.8
2018-Jul-10 13:01N 40°44' W 074°01'2 4.3
2018-Jul-10 12:30N 40°45' W 073°58'  

Dump ship's entire track history